sensor_id;sensor_type;location;lat;lon;timestamp;P1;durP1;ratioP1;P2;durP2;ratioP2
53108;SDS011;39007;53.090;6.074;2023-08-12T00:02:12;7.45;;;4.38;;
53108;SDS011;39007;53.090;6.074;2023-08-12T00:04:38;10.50;;;4.00;;
53108;SDS011;39007;53.090;6.074;2023-08-12T00:07:04;9.68;;;4.30;;
53108;SDS011;39007;53.090;6.074;2023-08-12T00:09:30;9.55;;;3.97;;
53108;SDS011;39007;53.090;6.074;2023-08-12T00:11:56;13.20;;;4.15;;
53108;SDS011;39007;53.090;6.074;2023-08-12T00:14:22;8.40;;;4.60;;
53108;SDS011;39007;53.090;6.074;2023-08-12T00:16:48;11.07;;;4.45;;
53108;SDS011;39007;53.090;6.074;2023-08-12T00:19:14;10.23;;;4.20;;
53108;SDS011;39007;53.090;6.074;2023-08-12T00:21:40;9.25;;;4.35;;
53108;SDS011;39007;53.090;6.074;2023-08-12T00:24:06;9.73;;;4.40;;
53108;SDS011;39007;53.090;6.074;2023-08-12T00:26:33;9.32;;;4.40;;
53108;SDS011;39007;53.090;6.074;2023-08-12T00:28:59;11.60;;;4.40;;
53108;SDS011;39007;53.090;6.074;2023-08-12T00:31:25;11.98;;;3.70;;
53108;SDS011;39007;53.090;6.074;2023-08-12T00:33:51;8.05;;;4.72;;
53108;SDS011;39007;53.090;6.074;2023-08-12T00:36:17;7.05;;;4.10;;
53108;SDS011;39007;53.090;6.074;2023-08-12T00:38:43;8.90;;;3.97;;
53108;SDS011;39007;53.090;6.074;2023-08-12T00:41:09;7.72;;;4.10;;
53108;SDS011;39007;53.090;6.074;2023-08-12T00:43:35;10.27;;;3.85;;
53108;SDS011;39007;53.090;6.074;2023-08-12T00:46:01;8.75;;;4.35;;
53108;SDS011;39007;53.090;6.074;2023-08-12T00:48:27;12.85;;;4.47;;
53108;SDS011;39007;53.090;6.074;2023-08-12T00:50:53;6.43;;;3.90;;
53108;SDS011;39007;53.090;6.074;2023-08-12T00:53:19;9.52;;;4.35;;
53108;SDS011;39007;53.090;6.074;2023-08-12T00:55:46;10.07;;;4.53;;
53108;SDS011;39007;53.090;6.074;2023-08-12T00:58:12;7.47;;;4.25;;
53108;SDS011;39007;53.090;6.074;2023-08-12T01:00:38;9.45;;;4.80;;
53108;SDS011;39007;53.090;6.074;2023-08-12T01:03:05;9.07;;;4.28;;
53108;SDS011;39007;53.090;6.074;2023-08-12T01:05:31;10.40;;;4.60;;
53108;SDS011;39007;53.090;6.074;2023-08-12T01:07:58;9.13;;;4.63;;
53108;SDS011;39007;53.090;6.074;2023-08-12T01:10:25;9.57;;;4.80;;
53108;SDS011;39007;53.090;6.074;2023-08-12T01:13:07;10.35;;;4.80;;
53108;SDS011;39007;53.090;6.074;2023-08-12T01:15:36;10.90;;;5.07;;
53108;SDS011;39007;53.090;6.074;2023-08-12T01:18:03;8.85;;;4.00;;
53108;SDS011;39007;53.090;6.074;2023-08-12T01:20:31;8.57;;;4.60;;
53108;SDS011;39007;53.090;6.074;2023-08-12T01:22:58;8.70;;;4.63;;
53108;SDS011;39007;53.090;6.074;2023-08-12T01:25:27;9.65;;;4.68;;
53108;SDS011;39007;53.090;6.074;2023-08-12T01:27:53;11.05;;;4.70;;
53108;SDS011;39007;53.090;6.074;2023-08-12T01:30:21;8.32;;;4.80;;
53108;SDS011;39007;53.090;6.074;2023-08-12T01:35:21;10.48;;;5.18;;
53108;SDS011;39007;53.090;6.074;2023-08-12T01:37:49;8.88;;;5.30;;
53108;SDS011;39007;53.090;6.074;2023-08-12T01:40:16;9.45;;;5.35;;
53108;SDS011;39007;53.090;6.074;2023-08-12T01:42:42;11.25;;;5.47;;
53108;SDS011;39007;53.090;6.074;2023-08-12T01:45:09;8.02;;;5.05;;
53108;SDS011;39007;53.090;6.074;2023-08-12T01:47:35;10.32;;;5.95;;
53108;SDS011;39007;53.090;6.074;2023-08-12T01:50:01;11.50;;;6.10;;
53108;SDS011;39007;53.090;6.074;2023-08-12T01:52:28;13.77;;;6.47;;
53108;SDS011;39007;53.090;6.074;2023-08-12T01:54:54;12.25;;;6.40;;
53108;SDS011;39007;53.090;6.074;2023-08-12T01:57:20;10.73;;;6.50;;
53108;SDS011;39007;53.090;6.074;2023-08-12T01:59:46;10.50;;;6.47;;
53108;SDS011;39007;53.090;6.074;2023-08-12T02:02:12;11.27;;;6.60;;
53108;SDS011;39007;53.090;6.074;2023-08-12T02:04:39;10.02;;;6.13;;
53108;SDS011;39007;53.090;6.074;2023-08-12T02:07:06;11.93;;;6.20;;
53108;SDS011;39007;53.090;6.074;2023-08-12T02:09:32;9.32;;;6.10;;
53108;SDS011;39007;53.090;6.074;2023-08-12T02:11:58;13.07;;;6.57;;
53108;SDS011;39007;53.090;6.074;2023-08-12T02:14:24;11.35;;;6.50;;
53108;SDS011;39007;53.090;6.074;2023-08-12T02:16:50;12.68;;;6.72;;
53108;SDS011;39007;53.090;6.074;2023-08-12T02:19:16;12.60;;;6.65;;
53108;SDS011;39007;53.090;6.074;2023-08-12T02:21:43;12.50;;;7.00;;
53108;SDS011;39007;53.090;6.074;2023-08-12T02:24:09;11.32;;;6.40;;
53108;SDS011;39007;53.090;6.074;2023-08-12T02:26:36;11.10;;;6.22;;
53108;SDS011;39007;53.090;6.074;2023-08-12T02:29:02;14.50;;;6.60;;
53108;SDS011;39007;53.090;6.074;2023-08-12T02:31:28;12.75;;;6.90;;
53108;SDS011;39007;53.090;6.074;2023-08-12T02:33:55;10.50;;;6.28;;
53108;SDS011;39007;53.090;6.074;2023-08-12T02:36:21;12.18;;;6.53;;
53108;SDS011;39007;53.090;6.074;2023-08-12T02:38:47;11.35;;;6.60;;
53108;SDS011;39007;53.090;6.074;2023-08-12T02:41:13;11.18;;;6.75;;
53108;SDS011;39007;53.090;6.074;2023-08-12T02:43:39;11.77;;;6.07;;
53108;SDS011;39007;53.090;6.074;2023-08-12T02:46:05;11.77;;;6.60;;
53108;SDS011;39007;53.090;6.074;2023-08-12T02:48:32;13.68;;;7.20;;
53108;SDS011;39007;53.090;6.074;2023-08-12T02:50:58;12.25;;;7.30;;
53108;SDS011;39007;53.090;6.074;2023-08-12T02:53:24;11.07;;;7.38;;
53108;SDS011;39007;53.090;6.074;2023-08-12T02:55:50;11.00;;;7.50;;
53108;SDS011;39007;53.090;6.074;2023-08-12T02:58:16;11.57;;;7.18;;
53108;SDS011;39007;53.090;6.074;2023-08-12T03:00:42;11.85;;;7.95;;
53108;SDS011;39007;53.090;6.074;2023-08-12T03:03:09;15.55;;;8.73;;
53108;SDS011;39007;53.090;6.074;2023-08-12T03:05:35;12.75;;;8.40;;
53108;SDS011;39007;53.090;6.074;2023-08-12T03:08:02;14.02;;;8.57;;
53108;SDS011;39007;53.090;6.074;2023-08-12T03:10:29;14.75;;;8.90;;
53108;SDS011;39007;53.090;6.074;2023-08-12T03:12:55;14.07;;;8.63;;
53108;SDS011;39007;53.090;6.074;2023-08-12T03:15:21;13.82;;;8.38;;
53108;SDS011;39007;53.090;6.074;2023-08-12T03:17:47;15.65;;;9.02;;
53108;SDS011;39007;53.090;6.074;2023-08-12T03:20:13;13.93;;;8.25;;
53108;SDS011;39007;53.090;6.074;2023-08-12T03:22:39;14.68;;;8.88;;
53108;SDS011;39007;53.090;6.074;2023-08-12T03:25:06;13.95;;;8.75;;
53108;SDS011;39007;53.090;6.074;2023-08-12T03:27:32;13.25;;;8.50;;
53108;SDS011;39007;53.090;6.074;2023-08-12T03:29:58;15.90;;;8.30;;
53108;SDS011;39007;53.090;6.074;2023-08-12T03:32:24;14.40;;;8.32;;
53108;SDS011;39007;53.090;6.074;2023-08-12T03:34:51;11.35;;;8.45;;
53108;SDS011;39007;53.090;6.074;2023-08-12T03:37:18;15.05;;;8.82;;
53108;SDS011;39007;53.090;6.074;2023-08-12T03:39:44;17.65;;;8.50;;
53108;SDS011;39007;53.090;6.074;2023-08-12T03:42:10;14.45;;;9.07;;
53108;SDS011;39007;53.090;6.074;2023-08-12T03:44:36;15.15;;;8.82;;
53108;SDS011;39007;53.090;6.074;2023-08-12T03:47:02;15.63;;;8.10;;
53108;SDS011;39007;53.090;6.074;2023-08-12T03:49:28;13.00;;;8.63;;
53108;SDS011;39007;53.090;6.074;2023-08-12T03:51:54;13.93;;;8.38;;
53108;SDS011;39007;53.090;6.074;2023-08-12T03:54:20;14.43;;;8.68;;
53108;SDS011;39007;53.090;6.074;2023-08-12T03:56:46;15.23;;;8.68;;
53108;SDS011;39007;53.090;6.074;2023-08-12T03:59:12;16.35;;;8.80;;
53108;SDS011;39007;53.090;6.074;2023-08-12T04:01:38;14.95;;;8.35;;
53108;SDS011;39007;53.090;6.074;2023-08-12T04:04:04;13.35;;;8.57;;
53108;SDS011;39007;53.090;6.074;2023-08-12T04:06:30;13.43;;;8.70;;
53108;SDS011;39007;53.090;6.074;2023-08-12T04:08:56;16.40;;;8.82;;
53108;SDS011;39007;53.090;6.074;2023-08-12T04:11:23;16.27;;;8.77;;
53108;SDS011;39007;53.090;6.074;2023-08-12T04:13:49;14.30;;;7.88;;
53108;SDS011;39007;53.090;6.074;2023-08-12T04:16:15;13.50;;;8.10;;
53108;SDS011;39007;53.090;6.074;2023-08-12T04:18:41;16.95;;;8.50;;
53108;SDS011;39007;53.090;6.074;2023-08-12T04:21:07;14.50;;;8.48;;
53108;SDS011;39007;53.090;6.074;2023-08-12T04:23:33;15.60;;;7.47;;
53108;SDS011;39007;53.090;6.074;2023-08-12T04:25:59;12.77;;;7.82;;
53108;SDS011;39007;53.090;6.074;2023-08-12T04:28:26;11.93;;;7.55;;
53108;SDS011;39007;53.090;6.074;2023-08-12T04:30:52;15.48;;;7.90;;
53108;SDS011;39007;53.090;6.074;2023-08-12T04:33:18;15.45;;;8.45;;
53108;SDS011;39007;53.090;6.074;2023-08-12T04:35:47;12.68;;;7.38;;
53108;SDS011;39007;53.090;6.074;2023-08-12T04:38:13;16.25;;;8.02;;
53108;SDS011;39007;53.090;6.074;2023-08-12T04:40:39;16.85;;;7.75;;
53108;SDS011;39007;53.090;6.074;2023-08-12T04:43:06;15.50;;;7.55;;
53108;SDS011;39007;53.090;6.074;2023-08-12T04:45:32;11.10;;;7.18;;
53108;SDS011;39007;53.090;6.074;2023-08-12T04:47:59;13.05;;;7.03;;
53108;SDS011;39007;53.090;6.074;2023-08-12T04:50:25;16.52;;;8.07;;
53108;SDS011;39007;53.090;6.074;2023-08-12T04:52:51;11.70;;;6.88;;
53108;SDS011;39007;53.090;6.074;2023-08-12T04:55:18;10.77;;;7.15;;
53108;SDS011;39007;53.090;6.074;2023-08-12T04:57:44;9.57;;;7.10;;
53108;SDS011;39007;53.090;6.074;2023-08-12T05:00:10;14.48;;;7.32;;
53108;SDS011;39007;53.090;6.074;2023-08-12T05:02:36;13.93;;;7.43;;
53108;SDS011;39007;53.090;6.074;2023-08-12T05:05:02;14.70;;;7.32;;
53108;SDS011;39007;53.090;6.074;2023-08-12T05:07:28;13.20;;;7.30;;
53108;SDS011;39007;53.090;6.074;2023-08-12T05:09:56;12.30;;;7.70;;
53108;SDS011;39007;53.090;6.074;2023-08-12T05:12:22;13.65;;;7.25;;
53108;SDS011;39007;53.090;6.074;2023-08-12T05:14:48;13.20;;;7.70;;
53108;SDS011;39007;53.090;6.074;2023-08-12T05:17:14;13.18;;;8.15;;
53108;SDS011;39007;53.090;6.074;2023-08-12T05:19:40;15.02;;;7.60;;
53108;SDS011;39007;53.090;6.074;2023-08-12T05:22:06;19.30;;;8.55;;
53108;SDS011;39007;53.090;6.074;2023-08-12T05:24:32;13.60;;;8.07;;
53108;SDS011;39007;53.090;6.074;2023-08-12T05:26:58;12.30;;;7.85;;
53108;SDS011;39007;53.090;6.074;2023-08-12T05:29:25;16.10;;;8.60;;
53108;SDS011;39007;53.090;6.074;2023-08-12T05:31:51;13.55;;;8.35;;
53108;SDS011;39007;53.090;6.074;2023-08-12T05:34:17;14.57;;;8.07;;
53108;SDS011;39007;53.090;6.074;2023-08-12T05:36:43;14.75;;;8.32;;
53108;SDS011;39007;53.090;6.074;2023-08-12T05:39:09;12.88;;;8.35;;
53108;SDS011;39007;53.090;6.074;2023-08-12T05:41:36;13.63;;;8.68;;
53108;SDS011;39007;53.090;6.074;2023-08-12T05:44:02;14.05;;;9.38;;
53108;SDS011;39007;53.090;6.074;2023-08-12T05:46:28;15.20;;;9.23;;
53108;SDS011;39007;53.090;6.074;2023-08-12T05:48:54;15.27;;;8.98;;
53108;SDS011;39007;53.090;6.074;2023-08-12T05:51:20;12.93;;;9.23;;
53108;SDS011;39007;53.090;6.074;2023-08-12T05:53:46;17.08;;;9.38;;
53108;SDS011;39007;53.090;6.074;2023-08-12T05:56:12;16.15;;;8.90;;
53108;SDS011;39007;53.090;6.074;2023-08-12T05:58:38;15.75;;;9.85;;
53108;SDS011;39007;53.090;6.074;2023-08-12T06:01:04;16.02;;;8.57;;
53108;SDS011;39007;53.090;6.074;2023-08-12T06:03:30;12.52;;;8.60;;
53108;SDS011;39007;53.090;6.074;2023-08-12T06:05:56;20.08;;;9.75;;
53108;SDS011;39007;53.090;6.074;2023-08-12T06:08:22;16.45;;;9.68;;
53108;SDS011;39007;53.090;6.074;2023-08-12T06:10:49;16.38;;;9.27;;
53108;SDS011;39007;53.090;6.074;2023-08-12T06:13:15;18.40;;;10.13;;
53108;SDS011;39007;53.090;6.074;2023-08-12T06:15:41;17.33;;;10.85;;
53108;SDS011;39007;53.090;6.074;2023-08-12T06:18:07;14.73;;;10.57;;
53108;SDS011;39007;53.090;6.074;2023-08-12T06:20:33;20.60;;;11.57;;
53108;SDS011;39007;53.090;6.074;2023-08-12T06:22:59;23.42;;;11.80;;
53108;SDS011;39007;53.090;6.074;2023-08-12T06:25:25;20.90;;;11.25;;
53108;SDS011;39007;53.090;6.074;2023-08-12T06:27:51;19.65;;;11.63;;
53108;SDS011;39007;53.090;6.074;2023-08-12T06:30:17;16.23;;;11.10;;
53108;SDS011;39007;53.090;6.074;2023-08-12T06:32:43;21.23;;;12.05;;
53108;SDS011;39007;53.090;6.074;2023-08-12T06:35:09;18.13;;;11.35;;
53108;SDS011;39007;53.090;6.074;2023-08-12T06:37:35;18.23;;;11.82;;
53108;SDS011;39007;53.090;6.074;2023-08-12T06:40:02;19.27;;;11.30;;
53108;SDS011;39007;53.090;6.074;2023-08-12T06:42:28;18.70;;;12.48;;
53108;SDS011;39007;53.090;6.074;2023-08-12T06:44:58;20.00;;;12.15;;
53108;SDS011;39007;53.090;6.074;2023-08-12T06:47:25;21.63;;;12.23;;
53108;SDS011;39007;53.090;6.074;2023-08-12T06:49:52;18.63;;;12.30;;
53108;SDS011;39007;53.090;6.074;2023-08-12T06:52:18;24.10;;;12.93;;
53108;SDS011;39007;53.090;6.074;2023-08-12T06:54:44;20.55;;;12.23;;
53108;SDS011;39007;53.090;6.074;2023-08-12T06:57:11;20.95;;;12.50;;
53108;SDS011;39007;53.090;6.074;2023-08-12T06:59:40;16.90;;;12.23;;
53108;SDS011;39007;53.090;6.074;2023-08-12T07:02:06;21.67;;;12.82;;
53108;SDS011;39007;53.090;6.074;2023-08-12T07:04:32;20.92;;;13.00;;
53108;SDS011;39007;53.090;6.074;2023-08-12T07:06:59;23.80;;;13.95;;
53108;SDS011;39007;53.090;6.074;2023-08-12T07:09:25;20.23;;;14.10;;
53108;SDS011;39007;53.090;6.074;2023-08-12T07:11:51;21.85;;;13.30;;
53108;SDS011;39007;53.090;6.074;2023-08-12T07:14:17;20.33;;;12.35;;
53108;SDS011;39007;53.090;6.074;2023-08-12T07:16:43;19.48;;;13.20;;
53108;SDS011;39007;53.090;6.074;2023-08-12T07:19:09;24.42;;;13.55;;
53108;SDS011;39007;53.090;6.074;2023-08-12T07:21:35;21.77;;;13.93;;
53108;SDS011;39007;53.090;6.074;2023-08-12T07:24:01;24.95;;;13.98;;
53108;SDS011;39007;53.090;6.074;2023-08-12T07:26:27;22.40;;;13.43;;
53108;SDS011;39007;53.090;6.074;2023-08-12T07:28:53;22.73;;;13.10;;
53108;SDS011;39007;53.090;6.074;2023-08-12T07:31:19;22.75;;;13.57;;
53108;SDS011;39007;53.090;6.074;2023-08-12T07:33:45;21.63;;;13.90;;
53108;SDS011;39007;53.090;6.074;2023-08-12T07:36:11;24.00;;;13.25;;
53108;SDS011;39007;53.090;6.074;2023-08-12T07:38:38;22.70;;;13.77;;
53108;SDS011;39007;53.090;6.074;2023-08-12T07:41:04;24.40;;;14.13;;
53108;SDS011;39007;53.090;6.074;2023-08-12T07:43:30;20.80;;;13.98;;
53108;SDS011;39007;53.090;6.074;2023-08-12T07:45:56;20.83;;;13.60;;
53108;SDS011;39007;53.090;6.074;2023-08-12T07:48:23;27.15;;;15.18;;
53108;SDS011;39007;53.090;6.074;2023-08-12T07:50:56;35.22;;;14.95;;
53108;SDS011;39007;53.090;6.074;2023-08-12T07:53:22;23.65;;;13.35;;
53108;SDS011;39007;53.090;6.074;2023-08-12T07:55:48;22.55;;;14.20;;
53108;SDS011;39007;53.090;6.074;2023-08-12T07:58:15;22.60;;;13.65;;
53108;SDS011;39007;53.090;6.074;2023-08-12T08:00:41;23.92;;;15.07;;
53108;SDS011;39007;53.090;6.074;2023-08-12T08:03:07;23.13;;;14.70;;
53108;SDS011;39007;53.090;6.074;2023-08-12T08:05:33;20.75;;;13.30;;
53108;SDS011;39007;53.090;6.074;2023-08-12T08:07:59;22.88;;;14.32;;
53108;SDS011;39007;53.090;6.074;2023-08-12T08:10:25;26.92;;;15.38;;
53108;SDS011;39007;53.090;6.074;2023-08-12T08:12:51;20.88;;;14.82;;
53108;SDS011;39007;53.090;6.074;2023-08-12T08:15:18;24.02;;;15.80;;
53108;SDS011;39007;53.090;6.074;2023-08-12T08:17:44;25.35;;;17.17;;
53108;SDS011;39007;53.090;6.074;2023-08-12T08:20:10;26.38;;;17.67;;
53108;SDS011;39007;53.090;6.074;2023-08-12T08:22:36;26.08;;;16.80;;
53108;SDS011;39007;53.090;6.074;2023-08-12T08:25:03;25.45;;;17.73;;
53108;SDS011;39007;53.090;6.074;2023-08-12T08:27:29;24.73;;;16.88;;
53108;SDS011;39007;53.090;6.074;2023-08-12T08:29:55;32.05;;;19.25;;
53108;SDS011;39007;53.090;6.074;2023-08-12T08:32:21;26.55;;;17.52;;
53108;SDS011;39007;53.090;6.074;2023-08-12T08:34:47;29.65;;;17.98;;
53108;SDS011;39007;53.090;6.074;2023-08-12T08:37:13;30.90;;;19.30;;
53108;SDS011;39007;53.090;6.074;2023-08-12T08:39:39;32.60;;;19.85;;
53108;SDS011;39007;53.090;6.074;2023-08-12T08:42:05;33.17;;;19.92;;
53108;SDS011;39007;53.090;6.074;2023-08-12T08:44:32;29.83;;;19.48;;
53108;SDS011;39007;53.090;6.074;2023-08-12T08:46:59;30.65;;;19.88;;
53108;SDS011;39007;53.090;6.074;2023-08-12T08:49:25;38.80;;;22.77;;
53108;SDS011;39007;53.090;6.074;2023-08-12T08:51:52;35.45;;;22.65;;
53108;SDS011;39007;53.090;6.074;2023-08-12T08:54:21;32.53;;;21.90;;
53108;SDS011;39007;53.090;6.074;2023-08-12T08:56:48;31.13;;;21.38;;
53108;SDS011;39007;53.090;6.074;2023-08-12T08:59:15;32.72;;;21.30;;
53108;SDS011;39007;53.090;6.074;2023-08-12T09:01:41;32.58;;;22.52;;
53108;SDS011;39007;53.090;6.074;2023-08-12T09:04:07;34.13;;;22.27;;
53108;SDS011;39007;53.090;6.074;2023-08-12T09:06:33;34.53;;;22.80;;
53108;SDS011;39007;53.090;6.074;2023-08-12T09:09:02;39.13;;;23.42;;
53108;SDS011;39007;53.090;6.074;2023-08-12T09:11:30;33.08;;;23.70;;
53108;SDS011;39007;53.090;6.074;2023-08-12T09:13:56;34.35;;;23.08;;
53108;SDS011;39007;53.090;6.074;2023-08-12T09:16:22;31.10;;;21.92;;
53108;SDS011;39007;53.090;6.074;2023-08-12T09:18:53;33.42;;;22.67;;
53108;SDS011;39007;53.090;6.074;2023-08-12T09:21:19;34.10;;;22.90;;
53108;SDS011;39007;53.090;6.074;2023-08-12T09:23:45;31.40;;;22.10;;
53108;SDS011;39007;53.090;6.074;2023-08-12T09:26:13;27.40;;;20.23;;
53108;SDS011;39007;53.090;6.074;2023-08-12T09:28:40;29.10;;;20.35;;
53108;SDS011;39007;53.090;6.074;2023-08-12T09:31:06;32.03;;;21.02;;
53108;SDS011;39007;53.090;6.074;2023-08-12T09:33:32;25.23;;;18.45;;
53108;SDS011;39007;53.090;6.074;2023-08-12T09:35:58;30.45;;;19.88;;
53108;SDS011;39007;53.090;6.074;2023-08-12T09:38:25;30.55;;;20.83;;
53108;SDS011;39007;53.090;6.074;2023-08-12T09:40:52;31.45;;;21.50;;
53108;SDS011;39007;53.090;6.074;2023-08-12T09:43:23;28.33;;;19.63;;
53108;SDS011;39007;53.090;6.074;2023-08-12T09:45:49;29.02;;;20.00;;
53108;SDS011;39007;53.090;6.074;2023-08-12T09:48:16;23.30;;;18.60;;
53108;SDS011;39007;53.090;6.074;2023-08-12T09:50:42;20.65;;;14.98;;
53108;SDS011;39007;53.090;6.074;2023-08-12T09:53:08;22.30;;;15.85;;
53108;SDS011;39007;53.090;6.074;2023-08-12T09:55:35;18.48;;;13.93;;
53108;SDS011;39007;53.090;6.074;2023-08-12T09:58:01;18.23;;;13.70;;
53108;SDS011;39007;53.090;6.074;2023-08-12T10:00:32;17.20;;;13.27;;
53108;SDS011;39007;53.090;6.074;2023-08-12T10:02:58;16.50;;;12.75;;
53108;SDS011;39007;53.090;6.074;2023-08-12T10:05:31;15.60;;;11.52;;
53108;SDS011;39007;53.090;6.074;2023-08-12T10:07:57;13.15;;;10.30;;
53108;SDS011;39007;53.090;6.074;2023-08-12T10:10:26;14.30;;;10.90;;
53108;SDS011;39007;53.090;6.074;2023-08-12T10:12:53;15.35;;;10.18;;
53108;SDS011;39007;53.090;6.074;2023-08-12T10:15:19;15.55;;;10.38;;
53108;SDS011;39007;53.090;6.074;2023-08-12T10:17:47;11.93;;;9.45;;
53108;SDS011;39007;53.090;6.074;2023-08-12T10:20:20;14.90;;;10.25;;
53108;SDS011;39007;53.090;6.074;2023-08-12T10:22:47;12.43;;;9.25;;
53108;SDS011;39007;53.090;6.074;2023-08-12T10:25:14;13.43;;;8.88;;
53108;SDS011;39007;53.090;6.074;2023-08-12T10:27:41;11.73;;;8.20;;
53108;SDS011;39007;53.090;6.074;2023-08-12T10:30:07;11.18;;;7.82;;
53108;SDS011;39007;53.090;6.074;2023-08-12T10:32:34;8.15;;;6.03;;
53108;SDS011;39007;53.090;6.074;2023-08-12T10:35:00;6.47;;;4.60;;
53108;SDS011;39007;53.090;6.074;2023-08-12T10:37:30;8.50;;;4.07;;
53108;SDS011;39007;53.090;6.074;2023-08-12T10:39:57;11.68;;;3.30;;
53108;SDS011;39007;53.090;6.074;2023-08-12T10:42:42;18.30;;;3.00;;
53108;SDS011;39007;53.090;6.074;2023-08-12T10:47:39;9.75;;;2.85;;
53108;SDS011;39007;53.090;6.074;2023-08-12T10:50:05;10.15;;;3.20;;
53108;SDS011;39007;53.090;6.074;2023-08-12T10:52:32;10.82;;;2.80;;
53108;SDS011;39007;53.090;6.074;2023-08-12T10:57:44;6.65;;;2.40;;
53108;SDS011;39007;53.090;6.074;2023-08-12T11:00:13;10.00;;;2.85;;
53108;SDS011;39007;53.090;6.074;2023-08-12T11:02:40;9.52;;;3.33;;
53108;SDS011;39007;53.090;6.074;2023-08-12T11:05:10;11.82;;;3.17;;
53108;SDS011;39007;53.090;6.074;2023-08-12T11:07:40;10.75;;;3.05;;
53108;SDS011;39007;53.090;6.074;2023-08-12T11:10:39;9.13;;;3.20;;
53108;SDS011;39007;53.090;6.074;2023-08-12T11:12:59;9.68;;;3.40;;
53108;SDS011;39007;53.090;6.074;2023-08-12T11:15:29;10.07;;;3.50;;
53108;SDS011;39007;53.090;6.074;2023-08-12T11:17:56;8.02;;;3.30;;
53108;SDS011;39007;53.090;6.074;2023-08-12T11:20:22;7.15;;;3.38;;
53108;SDS011;39007;53.090;6.074;2023-08-12T11:22:49;10.00;;;3.50;;
53108;SDS011;39007;53.090;6.074;2023-08-12T11:25:15;7.45;;;3.40;;
53108;SDS011;39007;53.090;6.074;2023-08-12T11:27:42;12.40;;;3.50;;
53108;SDS011;39007;53.090;6.074;2023-08-12T11:30:10;11.60;;;3.50;;
53108;SDS011;39007;53.090;6.074;2023-08-12T11:32:37;10.80;;;4.80;;
53108;SDS011;39007;53.090;6.074;2023-08-12T11:35:03;12.18;;;3.78;;
53108;SDS011;39007;53.090;6.074;2023-08-12T11:37:31;8.95;;;3.50;;
53108;SDS011;39007;53.090;6.074;2023-08-12T11:39:57;11.52;;;2.92;;
53108;SDS011;39007;53.090;6.074;2023-08-12T11:42:23;10.25;;;3.05;;
53108;SDS011;39007;53.090;6.074;2023-08-12T11:44:49;16.33;;;3.80;;
53108;SDS011;39007;53.090;6.074;2023-08-12T11:47:15;12.90;;;3.22;;
53108;SDS011;39007;53.090;6.074;2023-08-12T11:49:41;11.75;;;3.47;;
53108;SDS011;39007;53.090;6.074;2023-08-12T11:52:08;7.80;;;3.08;;
53108;SDS011;39007;53.090;6.074;2023-08-12T11:54:35;12.32;;;3.88;;
53108;SDS011;39007;53.090;6.074;2023-08-12T11:57:01;9.10;;;3.40;;
53108;SDS011;39007;53.090;6.074;2023-08-12T11:59:27;13.38;;;3.78;;
53108;SDS011;39007;53.090;6.074;2023-08-12T12:01:54;11.20;;;3.83;;
53108;SDS011;39007;53.090;6.074;2023-08-12T12:04:20;11.23;;;3.83;;
53108;SDS011;39007;53.090;6.074;2023-08-12T12:06:46;12.05;;;4.50;;
53108;SDS011;39007;53.090;6.074;2023-08-12T12:09:13;13.10;;;3.88;;
53108;SDS011;39007;53.090;6.074;2023-08-12T12:11:40;9.57;;;3.92;;
53108;SDS011;39007;53.090;6.074;2023-08-12T12:14:07;9.38;;;4.00;;
53108;SDS011;39007;53.090;6.074;2023-08-12T12:16:43;11.02;;;4.05;;
53108;SDS011;39007;53.090;6.074;2023-08-12T12:21:42;10.15;;;3.78;;
53108;SDS011;39007;53.090;6.074;2023-08-12T12:24:09;10.23;;;3.80;;
53108;SDS011;39007;53.090;6.074;2023-08-12T12:26:35;11.20;;;4.32;;
53108;SDS011;39007;53.090;6.074;2023-08-12T12:29:05;9.45;;;3.78;;
53108;SDS011;39007;53.090;6.074;2023-08-12T12:31:32;10.20;;;3.65;;
53108;SDS011;39007;53.090;6.074;2023-08-12T12:33:58;10.80;;;3.38;;
53108;SDS011;39007;53.090;6.074;2023-08-12T12:36:24;10.27;;;3.28;;
53108;SDS011;39007;53.090;6.074;2023-08-12T12:38:51;10.55;;;3.17;;
53108;SDS011;39007;53.090;6.074;2023-08-12T12:41:17;11.35;;;3.30;;
53108;SDS011;39007;53.090;6.074;2023-08-12T12:43:43;10.32;;;3.55;;
53108;SDS011;39007;53.090;6.074;2023-08-12T12:46:09;11.63;;;3.85;;
53108;SDS011;39007;53.090;6.074;2023-08-12T12:48:35;10.82;;;3.53;;
53108;SDS011;39007;53.090;6.074;2023-08-12T12:51:01;10.40;;;3.92;;
53108;SDS011;39007;53.090;6.074;2023-08-12T12:53:27;11.70;;;3.95;;
53108;SDS011;39007;53.090;6.074;2023-08-12T12:55:53;14.35;;;4.63;;
53108;SDS011;39007;53.090;6.074;2023-08-12T12:58:21;12.00;;;4.00;;
53108;SDS011;39007;53.090;6.074;2023-08-12T13:00:48;10.18;;;3.85;;
53108;SDS011;39007;53.090;6.074;2023-08-12T13:03:14;11.73;;;3.78;;
53108;SDS011;39007;53.090;6.074;2023-08-12T13:05:40;11.98;;;3.63;;
53108;SDS011;39007;53.090;6.074;2023-08-12T13:08:06;11.38;;;3.70;;
53108;SDS011;39007;53.090;6.074;2023-08-12T13:10:33;11.25;;;3.22;;
53108;SDS011;39007;53.090;6.074;2023-08-12T13:12:59;15.10;;;3.83;;
53108;SDS011;39007;53.090;6.074;2023-08-12T13:15:25;14.02;;;3.25;;
53108;SDS011;39007;53.090;6.074;2023-08-12T13:17:51;12.45;;;3.22;;
53108;SDS011;39007;53.090;6.074;2023-08-12T13:20:18;12.90;;;3.35;;
53108;SDS011;39007;53.090;6.074;2023-08-12T13:22:44;16.45;;;3.40;;
53108;SDS011;39007;53.090;6.074;2023-08-12T13:25:10;12.35;;;3.28;;
53108;SDS011;39007;53.090;6.074;2023-08-12T13:27:37;15.85;;;3.70;;
53108;SDS011;39007;53.090;6.074;2023-08-12T13:30:03;13.95;;;3.10;;
53108;SDS011;39007;53.090;6.074;2023-08-12T13:32:30;12.52;;;3.30;;
53108;SDS011;39007;53.090;6.074;2023-08-12T13:34:56;11.65;;;2.95;;
53108;SDS011;39007;53.090;6.074;2023-08-12T13:37:22;11.27;;;2.63;;
53108;SDS011;39007;53.090;6.074;2023-08-12T13:39:48;12.55;;;2.80;;
53108;SDS011;39007;53.090;6.074;2023-08-12T13:42:14;10.35;;;3.25;;
53108;SDS011;39007;53.090;6.074;2023-08-12T13:44:40;11.27;;;2.90;;
53108;SDS011;39007;53.090;6.074;2023-08-12T13:47:06;9.27;;;3.28;;
53108;SDS011;39007;53.090;6.074;2023-08-12T13:49:32;11.70;;;3.10;;
53108;SDS011;39007;53.090;6.074;2023-08-12T13:51:58;9.75;;;3.05;;
53108;SDS011;39007;53.090;6.074;2023-08-12T13:54:24;8.65;;;2.38;;
53108;SDS011;39007;53.090;6.074;2023-08-12T13:56:50;11.43;;;2.63;;
53108;SDS011;39007;53.090;6.074;2023-08-12T13:59:16;13.27;;;3.10;;
53108;SDS011;39007;53.090;6.074;2023-08-12T14:01:42;8.30;;;2.40;;
53108;SDS011;39007;53.090;6.074;2023-08-12T14:04:08;10.82;;;2.90;;
53108;SDS011;39007;53.090;6.074;2023-08-12T14:06:34;10.23;;;2.97;;
53108;SDS011;39007;53.090;6.074;2023-08-12T14:09:01;11.13;;;2.90;;
53108;SDS011;39007;53.090;6.074;2023-08-12T14:11:27;11.40;;;2.83;;
53108;SDS011;39007;53.090;6.074;2023-08-12T14:13:53;10.40;;;2.85;;
53108;SDS011;39007;53.090;6.074;2023-08-12T14:16:19;12.25;;;3.05;;
53108;SDS011;39007;53.090;6.074;2023-08-12T14:18:45;10.77;;;2.40;;
53108;SDS011;39007;53.090;6.074;2023-08-12T14:21:11;9.45;;;2.63;;
53108;SDS011;39007;53.090;6.074;2023-08-12T14:23:37;9.40;;;2.78;;
53108;SDS011;39007;53.090;6.074;2023-08-12T14:26:03;10.55;;;3.00;;
53108;SDS011;39007;53.090;6.074;2023-08-12T14:28:29;13.13;;;2.95;;
53108;SDS011;39007;53.090;6.074;2023-08-12T14:30:55;11.77;;;2.67;;
53108;SDS011;39007;53.090;6.074;2023-08-12T14:33:21;12.50;;;3.03;;
53108;SDS011;39007;53.090;6.074;2023-08-12T14:35:50;11.48;;;3.05;;
53108;SDS011;39007;53.090;6.074;2023-08-12T14:38:17;13.02;;;3.40;;
53108;SDS011;39007;53.090;6.074;2023-08-12T14:40:48;13.68;;;3.30;;